sensor_id;sensor_type;location;lat;lon;timestamp;pressure;altitude;pressure_sealevel;temperature;humidity
46241;BME280;31961;52.416;-0.732;2023-02-11T00:01:07;102557.71;;;4.39;100.00
46241;BME280;31961;52.416;-0.732;2023-02-11T00:03:35;102556.26;;;4.66;100.00
46241;BME280;31961;52.416;-0.732;2023-02-11T00:06:05;102559.79;;;4.42;100.00
46241;BME280;31961;52.416;-0.732;2023-02-11T00:08:33;102560.76;;;3.72;100.00
46241;BME280;31961;52.416;-0.732;2023-02-11T00:10:59;102560.24;;;4.54;100.00
46241;BME280;31961;52.416;-0.732;2023-02-11T00:13:27;102555.00;;;4.91;100.00
46241;BME280;31961;52.416;-0.732;2023-02-11T00:15:56;102562.42;;;4.50;100.00
46241;BME280;31961;52.416;-0.732;2023-02-11T00:18:23;102555.66;;;4.68;100.00
46241;BME280;31961;52.416;-0.732;2023-02-11T00:20:50;102550.08;;;5.45;100.00
46241;BME280;31961;52.416;-0.732;2023-02-11T00:23:18;102543.99;;;5.27;100.00
46241;BME280;31961;52.416;-0.732;2023-02-11T00:25:45;102553.45;;;4.74;100.00
46241;BME280;31961;52.416;-0.732;2023-02-11T00:28:13;102547.07;;;5.21;100.00
46241;BME280;31961;52.416;-0.732;2023-02-11T00:30:40;102549.91;;;4.73;100.00
46241;BME280;31961;52.416;-0.732;2023-02-11T00:33:08;102550.51;;;4.98;100.00
46241;BME280;31961;52.416;-0.732;2023-02-11T00:35:36;102546.35;;;4.47;100.00
46241;BME280;31961;52.416;-0.732;2023-02-11T00:38:04;102547.12;;;4.82;100.00
46241;BME280;31961;52.416;-0.732;2023-02-11T00:40:32;102539.06;;;5.07;100.00
46241;BME280;31961;52.416;-0.732;2023-02-11T00:42:59;102533.63;;;5.26;100.00
46241;BME280;31961;52.416;-0.732;2023-02-11T00:45:27;102537.74;;;5.28;100.00
46241;BME280;31961;52.416;-0.732;2023-02-11T00:47:54;102535.31;;;5.57;100.00
46241;BME280;31961;52.416;-0.732;2023-02-11T00:50:21;102534.66;;;5.58;100.00
46241;BME280;31961;52.416;-0.732;2023-02-11T00:52:49;102530.32;;;5.49;100.00
46241;BME280;31961;52.416;-0.732;2023-02-11T00:55:17;102534.92;;;5.48;100.00
46241;BME280;31961;52.416;-0.732;2023-02-11T00:57:44;102538.95;;;4.90;100.00
46241;BME280;31961;52.416;-0.732;2023-02-11T01:00:13;102532.55;;;5.58;100.00
46241;BME280;31961;52.416;-0.732;2023-02-11T01:02:41;102528.51;;;5.34;100.00
46241;BME280;31961;52.416;-0.732;2023-02-11T01:05:08;102529.58;;;5.28;100.00
46241;BME280;31961;52.416;-0.732;2023-02-11T01:07:36;102533.06;;;5.25;100.00
46241;BME280;31961;52.416;-0.732;2023-02-11T01:10:04;102533.96;;;4.94;100.00
46241;BME280;31961;52.416;-0.732;2023-02-11T01:12:32;102530.33;;;5.71;100.00
46241;BME280;31961;52.416;-0.732;2023-02-11T01:14:59;102535.97;;;5.13;100.00
46241;BME280;31961;52.416;-0.732;2023-02-11T01:17:27;102539.11;;;5.74;100.00
46241;BME280;31961;52.416;-0.732;2023-02-11T01:19:55;102538.83;;;5.94;100.00
46241;BME280;31961;52.416;-0.732;2023-02-11T01:22:22;102544.58;;;4.70;100.00
46241;BME280;31961;52.416;-0.732;2023-02-11T01:24:50;102543.29;;;5.05;100.00
46241;BME280;31961;52.416;-0.732;2023-02-11T01:27:18;102541.82;;;4.79;100.00
46241;BME280;31961;52.416;-0.732;2023-02-11T01:29:45;102534.18;;;4.97;100.00
46241;BME280;31961;52.416;-0.732;2023-02-11T01:32:12;102533.04;;;4.79;100.00
46241;BME280;31961;52.416;-0.732;2023-02-11T01:34:40;102541.75;;;4.48;100.00
46241;BME280;31961;52.416;-0.732;2023-02-11T01:37:07;102540.57;;;4.75;100.00
46241;BME280;31961;52.416;-0.732;2023-02-11T01:39:35;102533.59;;;6.17;100.00
46241;BME280;31961;52.416;-0.732;2023-02-11T01:42:03;102529.73;;;7.47;100.00
46241;BME280;31961;52.416;-0.732;2023-02-11T01:44:32;102531.59;;;7.44;100.00
46241;BME280;31961;52.416;-0.732;2023-02-11T01:47:00;102534.04;;;8.63;100.00
46241;BME280;31961;52.416;-0.732;2023-02-11T01:49:31;102527.70;;;8.87;100.00
46241;BME280;31961;52.416;-0.732;2023-02-11T01:52:01;102528.95;;;8.44;100.00
46241;BME280;31961;52.416;-0.732;2023-02-11T01:54:33;102524.82;;;6.21;100.00
46241;BME280;31961;52.416;-0.732;2023-02-11T01:57:02;102527.91;;;6.59;100.00
46241;BME280;31961;52.416;-0.732;2023-02-11T01:59:33;102530.00;;;7.29;100.00
46241;BME280;31961;52.416;-0.732;2023-02-11T02:02:09;102526.49;;;7.83;100.00
46241;BME280;31961;52.416;-0.732;2023-02-11T02:04:43;102527.06;;;8.19;100.00
46241;BME280;31961;52.416;-0.732;2023-02-11T02:07:16;102532.83;;;7.92;100.00
46241;BME280;31961;52.416;-0.732;2023-02-11T02:09:50;102534.05;;;7.93;100.00
46241;BME280;31961;52.416;-0.732;2023-02-11T02:12:21;102537.09;;;7.18;100.00
46241;BME280;31961;52.416;-0.732;2023-02-11T02:14:48;102539.68;;;7.60;100.00
46241;BME280;31961;52.416;-0.732;2023-02-11T02:17:33;102538.89;;;6.53;100.00
46241;BME280;31961;52.416;-0.732;2023-02-11T02:20:22;102536.89;;;6.79;100.00
46241;BME280;31961;52.416;-0.732;2023-02-11T02:23:09;102541.62;;;5.73;100.00
46241;BME280;31961;52.416;-0.732;2023-02-11T02:25:59;102550.55;;;5.58;100.00
46241;BME280;31961;52.416;-0.732;2023-02-11T02:28:57;102556.15;;;5.47;100.00
46241;BME280;31961;52.416;-0.732;2023-02-11T02:31:45;102559.66;;;5.39;100.00
46241;BME280;31961;52.416;-0.732;2023-02-11T02:34:26;102552.37;;;4.55;100.00
46241;BME280;31961;52.416;-0.732;2023-02-11T02:37:02;102546.92;;;5.27;100.00
46241;BME280;31961;52.416;-0.732;2023-02-11T02:39:33;102543.36;;;5.11;100.00
46241;BME280;31961;52.416;-0.732;2023-02-11T02:42:01;102543.93;;;4.63;100.00
46241;BME280;31961;52.416;-0.732;2023-02-11T02:44:29;102541.14;;;4.51;100.00
46241;BME280;31961;52.416;-0.732;2023-02-11T02:46:57;102551.27;;;4.03;100.00
46241;BME280;31961;52.416;-0.732;2023-02-11T02:49:24;102546.26;;;4.58;100.00
46241;BME280;31961;52.416;-0.732;2023-02-11T02:52:03;102543.80;;;4.33;100.00
46241;BME280;31961;52.416;-0.732;2023-02-11T02:54:48;102535.62;;;6.39;100.00
46241;BME280;31961;52.416;-0.732;2023-02-11T02:57:30;102527.54;;;6.75;100.00
46241;BME280;31961;52.416;-0.732;2023-02-11T03:00:10;102519.96;;;7.53;100.00
46241;BME280;31961;52.416;-0.732;2023-02-11T03:02:49;102518.03;;;7.87;100.00
46241;BME280;31961;52.416;-0.732;2023-02-11T03:05:24;102518.92;;;7.22;100.00
46241;BME280;31961;52.416;-0.732;2023-02-11T03:08:00;102518.28;;;7.54;100.00
46241;BME280;31961;52.416;-0.732;2023-02-11T03:10:30;102520.65;;;7.54;100.00
46241;BME280;31961;52.416;-0.732;2023-02-11T03:13:00;102517.97;;;6.68;100.00
46241;BME280;31961;52.416;-0.732;2023-02-11T03:15:32;102517.65;;;4.63;100.00
46241;BME280;31961;52.416;-0.732;2023-02-11T03:18:02;102519.69;;;4.02;100.00
46241;BME280;31961;52.416;-0.732;2023-02-11T03:20:32;102510.81;;;4.19;100.00
46241;BME280;31961;52.416;-0.732;2023-02-11T03:23:05;102512.50;;;4.28;100.00
46241;BME280;31961;52.416;-0.732;2023-02-11T03:25:37;102512.77;;;4.57;100.00
46241;BME280;31961;52.416;-0.732;2023-02-11T03:28:10;102504.87;;;4.63;100.00
46241;BME280;31961;52.416;-0.732;2023-02-11T03:30:44;102510.83;;;3.32;100.00
46241;BME280;31961;52.416;-0.732;2023-02-11T03:33:17;102498.31;;;4.19;100.00
46241;BME280;31961;52.416;-0.732;2023-02-11T03:35:50;102501.61;;;3.61;100.00
46241;BME280;31961;52.416;-0.732;2023-02-11T03:38:21;102497.13;;;4.08;100.00
46241;BME280;31961;52.416;-0.732;2023-02-11T03:40:50;102499.41;;;4.02;100.00
46241;BME280;31961;52.416;-0.732;2023-02-11T03:43:20;102503.42;;;3.06;100.00
46241;BME280;31961;52.416;-0.732;2023-02-11T03:45:50;102505.55;;;3.37;100.00
46241;BME280;31961;52.416;-0.732;2023-02-11T03:48:22;102509.15;;;3.17;100.00
46241;BME280;31961;52.416;-0.732;2023-02-11T03:50:53;102510.89;;;2.76;100.00
46241;BME280;31961;52.416;-0.732;2023-02-11T03:53:22;102509.59;;;2.94;100.00
46241;BME280;31961;52.416;-0.732;2023-02-11T03:55:51;102509.93;;;2.20;100.00
46241;BME280;31961;52.416;-0.732;2023-02-11T03:58:20;102510.17;;;2.68;100.00
46241;BME280;31961;52.416;-0.732;2023-02-11T04:00:47;102507.98;;;2.51;100.00
46241;BME280;31961;52.416;-0.732;2023-02-11T04:03:14;102504.05;;;2.60;100.00
46241;BME280;31961;52.416;-0.732;2023-02-11T04:05:42;102507.10;;;2.42;100.00
46241;BME280;31961;52.416;-0.732;2023-02-11T04:08:10;102510.43;;;2.57;100.00
46241;BME280;31961;52.416;-0.732;2023-02-11T04:10:37;102509.52;;;3.09;100.00
46241;BME280;31961;52.416;-0.732;2023-02-11T04:13:05;102510.20;;;2.12;100.00
46241;BME280;31961;52.416;-0.732;2023-02-11T04:15:32;102509.12;;;2.04;100.00
46241;BME280;31961;52.416;-0.732;2023-02-11T04:18:00;102513.67;;;1.84;100.00
46241;BME280;31961;52.416;-0.732;2023-02-11T04:20:27;102513.65;;;2.27;100.00
46241;BME280;31961;52.416;-0.732;2023-02-11T04:22:54;102509.11;;;2.68;100.00
46241;BME280;31961;52.416;-0.732;2023-02-11T04:25:21;102509.37;;;2.16;100.00
46241;BME280;31961;52.416;-0.732;2023-02-11T04:27:49;102515.42;;;1.90;100.00
46241;BME280;31961;52.416;-0.732;2023-02-11T04:30:16;102516.87;;;2.40;100.00
46241;BME280;31961;52.416;-0.732;2023-02-11T04:32:43;102524.01;;;2.60;100.00
46241;BME280;31961;52.416;-0.732;2023-02-11T04:35:10;102529.49;;;3.51;100.00
46241;BME280;31961;52.416;-0.732;2023-02-11T04:37:38;102527.32;;;4.26;100.00
46241;BME280;31961;52.416;-0.732;2023-02-11T04:40:06;102521.60;;;5.00;100.00
46241;BME280;31961;52.416;-0.732;2023-02-11T04:42:33;102525.34;;;5.98;100.00
46241;BME280;31961;52.416;-0.732;2023-02-11T04:45:00;102523.73;;;6.02;100.00
46241;BME280;31961;52.416;-0.732;2023-02-11T04:47:27;102531.48;;;6.76;100.00
46241;BME280;31961;52.416;-0.732;2023-02-11T04:49:54;102531.93;;;6.64;100.00
46241;BME280;31961;52.416;-0.732;2023-02-11T04:52:22;102532.58;;;6.43;100.00
46241;BME280;31961;52.416;-0.732;2023-02-11T04:54:49;102532.14;;;7.11;100.00
46241;BME280;31961;52.416;-0.732;2023-02-11T04:57:17;102528.20;;;7.29;100.00
46241;BME280;31961;52.416;-0.732;2023-02-11T04:59:44;102533.04;;;7.03;100.00
46241;BME280;31961;52.416;-0.732;2023-02-11T05:02:11;102535.15;;;6.09;100.00
46241;BME280;31961;52.416;-0.732;2023-02-11T05:04:39;102536.91;;;6.27;100.00
46241;BME280;31961;52.416;-0.732;2023-02-11T05:07:06;102546.96;;;7.22;100.00
46241;BME280;31961;52.416;-0.732;2023-02-11T05:09:34;102546.57;;;7.52;100.00
46241;BME280;31961;52.416;-0.732;2023-02-11T05:12:02;102552.15;;;7.72;100.00
46241;BME280;31961;52.416;-0.732;2023-02-11T05:14:29;102556.24;;;8.07;100.00
46241;BME280;31961;52.416;-0.732;2023-02-11T05:16:55;102552.56;;;7.82;100.00
46241;BME280;31961;52.416;-0.732;2023-02-11T05:19:23;102552.42;;;7.56;100.00
46241;BME280;31961;52.416;-0.732;2023-02-11T05:21:50;102550.28;;;6.74;100.00
46241;BME280;31961;52.416;-0.732;2023-02-11T05:24:17;102551.34;;;5.63;100.00
46241;BME280;31961;52.416;-0.732;2023-02-11T05:26:44;102555.97;;;5.34;100.00
46241;BME280;31961;52.416;-0.732;2023-02-11T05:29:12;102547.14;;;5.51;100.00
46241;BME280;31961;52.416;-0.732;2023-02-11T05:31:39;102550.45;;;5.44;100.00
46241;BME280;31961;52.416;-0.732;2023-02-11T05:34:06;102552.06;;;4.93;100.00
46241;BME280;31961;52.416;-0.732;2023-02-11T05:36:34;102562.72;;;4.33;100.00
46241;BME280;31961;52.416;-0.732;2023-02-11T05:39:03;102563.73;;;4.41;100.00
46241;BME280;31961;52.416;-0.732;2023-02-11T05:41:29;102560.56;;;4.89;100.00
46241;BME280;31961;52.416;-0.732;2023-02-11T05:43:56;102570.91;;;5.05;100.00
46241;BME280;31961;52.416;-0.732;2023-02-11T05:46:23;102571.69;;;5.58;100.00
46241;BME280;31961;52.416;-0.732;2023-02-11T05:48:51;102576.77;;;5.19;100.00
46241;BME280;31961;52.416;-0.732;2023-02-11T05:51:18;102573.58;;;5.44;100.00
46241;BME280;31961;52.416;-0.732;2023-02-11T05:53:45;102583.08;;;4.45;100.00
46241;BME280;31961;52.416;-0.732;2023-02-11T05:56:13;102593.10;;;3.94;100.00
46241;BME280;31961;52.416;-0.732;2023-02-11T05:58:41;102588.94;;;3.92;100.00
46241;BME280;31961;52.416;-0.732;2023-02-11T06:01:08;102589.71;;;3.84;100.00
46241;BME280;31961;52.416;-0.732;2023-02-11T06:03:36;102594.74;;;3.89;100.00
46241;BME280;31961;52.416;-0.732;2023-02-11T06:06:04;102589.67;;;4.30;100.00
46241;BME280;31961;52.416;-0.732;2023-02-11T06:08:31;102589.76;;;3.54;100.00
46241;BME280;31961;52.416;-0.732;2023-02-11T06:10:59;102596.79;;;4.17;100.00
46241;BME280;31961;52.416;-0.732;2023-02-11T06:13:25;102591.62;;;3.50;100.00
46241;BME280;31961;52.416;-0.732;2023-02-11T06:15:57;102595.74;;;4.36;100.00
46241;BME280;31961;52.416;-0.732;2023-02-11T06:18:24;102608.47;;;3.90;100.00
46241;BME280;31961;52.416;-0.732;2023-02-11T06:20:51;102610.97;;;3.43;100.00
46241;BME280;31961;52.416;-0.732;2023-02-11T06:23:18;102611.73;;;3.62;100.00
46241;BME280;31961;52.416;-0.732;2023-02-11T06:25:46;102609.31;;;4.81;100.00
46241;BME280;31961;52.416;-0.732;2023-02-11T06:28:13;102609.54;;;4.35;100.00
46241;BME280;31961;52.416;-0.732;2023-02-11T06:30:41;102605.93;;;4.44;100.00
46241;BME280;31961;52.416;-0.732;2023-02-11T06:33:08;102602.82;;;3.34;100.00
46241;BME280;31961;52.416;-0.732;2023-02-11T06:35:37;102600.73;;;4.27;100.00
46241;BME280;31961;52.416;-0.732;2023-02-11T06:38:04;102601.77;;;3.47;100.00
46241;BME280;31961;52.416;-0.732;2023-02-11T06:40:32;102610.28;;;4.12;100.00
46241;BME280;31961;52.416;-0.732;2023-02-11T06:43:00;102610.47;;;3.43;100.00
46241;BME280;31961;52.416;-0.732;2023-02-11T06:45:27;102619.40;;;3.93;100.00
46241;BME280;31961;52.416;-0.732;2023-02-11T06:47:55;102620.91;;;3.99;100.00
46241;BME280;31961;52.416;-0.732;2023-02-11T06:50:22;102617.98;;;3.50;100.00
46241;BME280;31961;52.416;-0.732;2023-02-11T06:52:50;102617.10;;;3.63;100.00
46241;BME280;31961;52.416;-0.732;2023-02-11T06:55:16;102616.76;;;4.36;100.00
46241;BME280;31961;52.416;-0.732;2023-02-11T06:57:44;102612.83;;;3.69;100.00
46241;BME280;31961;52.416;-0.732;2023-02-11T07:00:12;102616.00;;;4.27;100.00
46241;BME280;31961;52.416;-0.732;2023-02-11T07:02:40;102616.18;;;3.48;100.00
46241;BME280;31961;52.416;-0.732;2023-02-11T07:05:08;102616.55;;;4.25;100.00
46241;BME280;31961;52.416;-0.732;2023-02-11T07:07:36;102608.23;;;4.26;100.00
46241;BME280;31961;52.416;-0.732;2023-02-11T07:10:04;102608.85;;;3.87;100.00
46241;BME280;31961;52.416;-0.732;2023-02-11T07:12:32;102607.11;;;3.01;100.00
46241;BME280;31961;52.416;-0.732;2023-02-11T07:14:59;102612.87;;;3.37;100.00
46241;BME280;31961;52.416;-0.732;2023-02-11T07:17:26;102619.22;;;3.21;100.00
46241;BME280;31961;52.416;-0.732;2023-02-11T07:19:54;102625.91;;;4.13;100.00
46241;BME280;31961;52.416;-0.732;2023-02-11T07:22:21;102630.84;;;4.25;100.00
46241;BME280;31961;52.416;-0.732;2023-02-11T07:24:48;102634.38;;;3.44;100.00
46241;BME280;31961;52.416;-0.732;2023-02-11T07:27:16;102634.33;;;3.78;100.00
46241;BME280;31961;52.416;-0.732;2023-02-11T07:29:43;102634.28;;;4.62;100.00
46241;BME280;31961;52.416;-0.732;2023-02-11T07:32:11;102632.79;;;4.89;100.00
46241;BME280;31961;52.416;-0.732;2023-02-11T07:34:38;102642.75;;;4.22;100.00
46241;BME280;31961;52.416;-0.732;2023-02-11T07:37:05;102634.25;;;5.54;100.00
46241;BME280;31961;52.416;-0.732;2023-02-11T07:39:33;102639.97;;;5.99;100.00
46241;BME280;31961;52.416;-0.732;2023-02-11T07:42:00;102652.83;;;4.86;100.00
46241;BME280;31961;52.416;-0.732;2023-02-11T07:44:28;102650.87;;;5.62;100.00
46241;BME280;31961;52.416;-0.732;2023-02-11T07:46:55;102656.23;;;5.32;100.00
46241;BME280;31961;52.416;-0.732;2023-02-11T07:49:23;102659.66;;;4.76;100.00
46241;BME280;31961;52.416;-0.732;2023-02-11T07:51:49;102648.65;;;5.74;100.00
46241;BME280;31961;52.416;-0.732;2023-02-11T07:54:17;102645.78;;;5.26;100.00
46241;BME280;31961;52.416;-0.732;2023-02-11T07:56:44;102652.27;;;4.97;100.00
46241;BME280;31961;52.416;-0.732;2023-02-11T07:59:12;102649.94;;;5.19;100.00
46241;BME280;31961;52.416;-0.732;2023-02-11T08:01:40;102652.26;;;5.56;100.00
46241;BME280;31961;52.416;-0.732;2023-02-11T08:04:07;102656.93;;;4.52;100.00
46241;BME280;31961;52.416;-0.732;2023-02-11T08:06:38;102658.37;;;5.12;100.00
46241;BME280;31961;52.416;-0.732;2023-02-11T08:09:07;102662.13;;;4.67;100.00
46241;BME280;31961;52.416;-0.732;2023-02-11T08:11:35;102668.51;;;4.32;100.00
46241;BME280;31961;52.416;-0.732;2023-02-11T08:14:02;102666.95;;;4.48;100.00
46241;BME280;31961;52.416;-0.732;2023-02-11T08:16:31;102663.36;;;4.53;100.00
46241;BME280;31961;52.416;-0.732;2023-02-11T08:19:01;102664.25;;;4.07;100.00
46241;BME280;31961;52.416;-0.732;2023-02-11T08:21:28;102660.61;;;4.90;100.00
46241;BME280;31961;52.416;-0.732;2023-02-11T08:23:56;102667.51;;;4.29;100.00
46241;BME280;31961;52.416;-0.732;2023-02-11T08:26:26;102668.32;;;4.69;100.00
46241;BME280;31961;52.416;-0.732;2023-02-11T08:28:55;102659.59;;;5.09;100.00
46241;BME280;31961;52.416;-0.732;2023-02-11T08:31:24;102661.08;;;4.35;100.00
46241;BME280;31961;52.416;-0.732;2023-02-11T08:33:52;102667.79;;;4.36;100.00
46241;BME280;31961;52.416;-0.732;2023-02-11T08:36:21;102672.53;;;3.92;100.00
46241;BME280;31961;52.416;-0.732;2023-02-11T08:38:49;102675.13;;;4.48;100.00
46241;BME280;31961;52.416;-0.732;2023-02-11T08:41:17;102680.64;;;4.81;100.00
46241;BME280;31961;52.416;-0.732;2023-02-11T08:43:44;102682.32;;;4.53;100.00
46241;BME280;31961;52.416;-0.732;2023-02-11T08:46:13;102679.94;;;4.73;100.00
46241;BME280;31961;52.416;-0.732;2023-02-11T08:48:42;102680.01;;;4.70;100.00
46241;BME280;31961;52.416;-0.732;2023-02-11T08:51:11;102675.54;;;4.94;100.00
46241;BME280;31961;52.416;-0.732;2023-02-11T08:53:39;102669.86;;;5.15;100.00
46241;BME280;31961;52.416;-0.732;2023-02-11T08:56:07;102669.38;;;4.46;100.00
46241;BME280;31961;52.416;-0.732;2023-02-11T08:58:34;102673.12;;;4.13;100.00
46241;BME280;31961;52.416;-0.732;2023-02-11T09:01:07;102676.73;;;4.08;100.00
46241;BME280;31961;52.416;-0.732;2023-02-11T09:03:34;102680.55;;;3.91;100.00
46241;BME280;31961;52.416;-0.732;2023-02-11T09:06:04;102683.45;;;4.28;100.00
46241;BME280;31961;52.416;-0.732;2023-02-11T09:08:33;102681.67;;;4.42;100.00
46241;BME280;31961;52.416;-0.732;2023-02-11T09:11:01;102682.90;;;4.57;100.00
46241;BME280;31961;52.416;-0.732;2023-02-11T09:13:29;102685.20;;;4.51;100.00
46241;BME280;31961;52.416;-0.732;2023-02-11T09:15:56;102686.15;;;4.57;100.00
46241;BME280;31961;52.416;-0.732;2023-02-11T09:18:24;102686.36;;;4.70;100.00
46241;BME280;31961;52.416;-0.732;2023-02-11T09:20:51;102686.28;;;4.50;100.00
46241;BME280;31961;52.416;-0.732;2023-02-11T09:23:18;102688.94;;;4.53;100.00
46241;BME280;31961;52.416;-0.732;2023-02-11T09:25:45;102693.14;;;3.64;100.00
46241;BME280;31961;52.416;-0.732;2023-02-11T09:28:12;102696.41;;;4.44;100.00
46241;BME280;31961;52.416;-0.732;2023-02-11T09:30:40;102697.59;;;4.67;100.00
46241;BME280;31961;52.416;-0.732;2023-02-11T09:33:08;102699.48;;;4.92;100.00
46241;BME280;31961;52.416;-0.732;2023-02-11T09:35:36;102702.51;;;4.93;100.00
46241;BME280;31961;52.416;-0.732;2023-02-11T09:38:04;102708.89;;;4.69;100.00
46241;BME280;31961;52.416;-0.732;2023-02-11T09:40:32;102697.67;;;5.83;100.00
46241;BME280;31961;52.416;-0.732;2023-02-11T09:43:03;102693.63;;;5.77;100.00
46241;BME280;31961;52.416;-0.732;2023-02-11T09:45:34;102684.99;;;6.21;100.00
46241;BME280;31961;52.416;-0.732;2023-02-11T09:48:04;102690.79;;;5.37;100.00
46241;BME280;31961;52.416;-0.732;2023-02-11T09:50:41;102688.99;;;5.11;100.00
46241;BME280;31961;52.416;-0.732;2023-02-11T09:53:12;102687.36;;;5.18;100.00
46241;BME280;31961;52.416;-0.732;2023-02-11T09:55:45;102694.27;;;5.10;100.00
46241;BME280;31961;52.416;-0.732;2023-02-11T09:58:16;102689.29;;;5.28;100.00
46241;BME280;31961;52.416;-0.732;2023-02-11T10:00:48;102694.25;;;5.19;100.00
46241;BME280;31961;52.416;-0.732;2023-02-11T10:03:33;102698.43;;;5.12;100.00
46241;BME280;31961;52.416;-0.732;2023-02-11T10:06:14;102692.17;;;5.45;100.00
46241;BME280;31961;52.416;-0.732;2023-02-11T10:08:53;102693.84;;;4.95;100.00
46241;BME280;31961;52.416;-0.732;2023-02-11T10:11:28;102697.66;;;5.03;100.00
46241;BME280;31961;52.416;-0.732;2023-02-11T10:14:04;102696.64;;;4.78;100.00
46241;BME280;31961;52.416;-0.732;2023-02-11T10:16:45;102696.18;;;5.24;100.00
46241;BME280;31961;52.416;-0.732;2023-02-11T10:19:28;102694.54;;;5.26;100.00
46241;BME280;31961;52.416;-0.732;2023-02-11T10:22:06;102690.64;;;5.07;100.00
46241;BME280;31961;52.416;-0.732;2023-02-11T10:24:36;102693.80;;;5.29;100.00
46241;BME280;31961;52.416;-0.732;2023-02-11T10:27:13;102689.21;;;5.64;100.00
46241;BME280;31961;52.416;-0.732;2023-02-11T10:29:46;102688.09;;;5.91;100.00
46241;BME280;31961;52.416;-0.732;2023-02-11T10:32:24;102694.32;;;4.61;100.00
46241;BME280;31961;52.416;-0.732;2023-02-11T10:34:57;102695.02;;;4.80;100.00
46241;BME280;31961;52.416;-0.732;2023-02-11T10:37:26;102697.56;;;4.78;100.00
46241;BME280;31961;52.416;-0.732;2023-02-11T10:39:53;102695.51;;;4.75;100.00
46241;BME280;31961;52.416;-0.732;2023-02-11T10:42:20;102686.63;;;5.23;100.00
46241;BME280;31961;52.416;-0.732;2023-02-11T10:44:55;102682.73;;;5.57;100.00
46241;BME280;31961;52.416;-0.732;2023-02-11T10:47:27;102678.23;;;5.56;100.00
46241;BME280;31961;52.416;-0.732;2023-02-11T10:49:56;102666.07;;;5.79;100.00
46241;BME280;31961;52.416;-0.732;2023-02-11T10:52:25;102659.23;;;5.77;100.00
46241;BME280;31961;52.416;-0.732;2023-02-11T10:54:58;102667.57;;;5.38;100.00
46241;BME280;31961;52.416;-0.732;2023-02-11T10:57:32;102671.53;;;5.96;100.00
46241;BME280;31961;52.416;-0.732;2023-02-11T11:00:04;102677.09;;;6.22;100.00
46241;BME280;31961;52.416;-0.732;2023-02-11T11:02:35;102677.55;;;6.21;100.00
46241;BME280;31961;52.416;-0.732;2023-02-11T11:05:05;102680.07;;;5.76;100.00
46241;BME280;31961;52.416;-0.732;2023-02-11T11:07:33;102675.25;;;6.00;100.00
46241;BME280;31961;52.416;-0.732;2023-02-11T11:10:04;102678.87;;;5.52;100.00
46241;BME280;31961;52.416;-0.732;2023-02-11T11:12:36;102669.65;;;6.07;100.00
46241;BME280;31961;52.416;-0.732;2023-02-11T11:15:16;102676.05;;;6.19;100.00
46241;BME280;31961;52.416;-0.732;2023-02-11T11:17:44;102674.67;;;6.10;100.00
46241;BME280;31961;52.416;-0.732;2023-02-11T11:20:20;102671.62;;;5.85;100.00
46241;BME280;31961;52.416;-0.732;2023-02-11T11:22:50;102674.57;;;6.12;100.00
46241;BME280;31961;52.416;-0.732;2023-02-11T11:25:23;102681.13;;;5.90;100.00
46241;BME280;31961;52.416;-0.732;2023-02-11T11:27:53;102670.98;;;6.08;100.00
46241;BME280;31961;52.416;-0.732;2023-02-11T11:30:24;102673.97;;;5.91;100.00
46241;BME280;31961;52.416;-0.732;2023-02-11T11:32:53;102678.32;;;6.06;100.00
46241;BME280;31961;52.416;-0.732;2023-02-11T11:35:24;102683.81;;;6.49;100.00
46241;BME280;31961;52.416;-0.732;2023-02-11T11:37:55;102684.17;;;5.90;100.00
46241;BME280;31961;52.416;-0.732;2023-02-11T11:40:26;102684.78;;;6.22;100.00
46241;BME280;31961;52.416;-0.732;2023-02-11T11:43:05;102684.73;;;6.58;100.00
46241;BME280;31961;52.416;-0.732;2023-02-11T11:45:33;102684.14;;;6.42;100.00
46241;BME280;31961;52.416;-0.732;2023-02-11T11:48:04;102684.96;;;5.99;100.00
46241;BME280;31961;52.416;-0.732;2023-02-11T11:50:40;102684.42;;;6.30;100.00
46241;BME280;31961;52.416;-0.732;2023-02-11T11:53:14;102684.27;;;6.45;100.00
46241;BME280;31961;52.416;-0.732;2023-02-11T11:55:44;102684.04;;;7.00;100.00
46241;BME280;31961;52.416;-0.732;2023-02-11T11:58:15;102688.87;;;7.19;100.00
46241;BME280;31961;52.416;-0.732;2023-02-11T12:00:52;102689.31;;;6.76;100.00
46241;BME280;31961;52.416;-0.732;2023-02-11T12:03:37;102686.92;;;7.34;100.00
46241;BME280;31961;52.416;-0.732;2023-02-11T12:06:20;102689.03;;;6.25;100.00
46241;BME280;31961;52.416;-0.732;2023-02-11T12:09:00;102685.70;;;6.44;100.00
46241;BME280;31961;52.416;-0.732;2023-02-11T12:11:40;102690.37;;;6.53;100.00
46241;BME280;31961;52.416;-0.732;2023-02-11T12:14:20;102694.25;;;6.96;100.00
46241;BME280;31961;52.416;-0.732;2023-02-11T12:16:55;102700.44;;;6.93;100.00
46241;BME280;31961;52.416;-0.732;2023-02-11T12:19:37;102697.62;;;6.82;100.00
46241;BME280;31961;52.416;-0.732;2023-02-11T12:22:11;102697.45;;;6.40;100.00
46241;BME280;31961;52.416;-0.732;2023-02-11T12:24:55;102698.68;;;6.58;100.00
46241;BME280;31961;52.416;-0.732;2023-02-11T12:27:38;102695.36;;;6.80;100.00
46241;BME280;31961;52.416;-0.732;2023-02-11T12:30:19;102697.03;;;6.23;100.00
46241;BME280;31961;52.416;-0.732;2023-02-11T12:32:57;102698.21;;;6.72;100.00
46241;BME280;31961;52.416;-0.732;2023-02-11T12:35:34;102701.81;;;6.32;100.00
46241;BME280;31961;52.416;-0.732;2023-02-11T12:38:19;102699.46;;;6.54;100.00
46241;BME280;31961;52.416;-0.732;2023-02-11T12:40:58;102706.83;;;5.64;100.00
46241;BME280;31961;52.416;-0.732;2023-02-11T12:43:33;102707.37;;;6.14;100.00
46241;BME280;31961;52.416;-0.732;2023-02-11T12:46:17;102710.48;;;6.62;100.00
46241;BME280;31961;52.416;-0.732;2023-02-11T12:49:02;102708.78;;;6.75;100.00
46241;BME280;31961;52.416;-0.732;2023-02-11T12:51:46;102705.94;;;6.84;100.00
46241;BME280;31961;52.416;-0.732;2023-02-11T12:54:21;102705.28;;;6.83;100.00
46241;BME280;31961;52.416;-0.732;2023-02-11T12:56:53;102709.35;;;6.28;100.00